sensor_id;sensor_type;location;lat;lon;timestamp;P1;durP1;ratioP1;P2;durP2;ratioP2
28988;SDS011;16089;59.952;10.818;2024-02-14T00:00:20;21.70;;;8.52;;
28988;SDS011;16089;59.952;10.818;2024-02-14T00:02:49;16.38;;;7.50;;
28988;SDS011;16089;59.952;10.818;2024-02-14T00:05:17;20.08;;;8.18;;
28988;SDS011;16089;59.952;10.818;2024-02-14T00:07:43;19.25;;;8.38;;
28988;SDS011;16089;59.952;10.818;2024-02-14T00:10:10;22.77;;;8.63;;
28988;SDS011;16089;59.952;10.818;2024-02-14T00:12:36;19.20;;;7.72;;
28988;SDS011;16089;59.952;10.818;2024-02-14T00:15:03;21.02;;;7.88;;
28988;SDS011;16089;59.952;10.818;2024-02-14T00:17:32;19.25;;;7.65;;
28988;SDS011;16089;59.952;10.818;2024-02-14T00:19:59;19.75;;;7.95;;
28988;SDS011;16089;59.952;10.818;2024-02-14T00:22:26;18.52;;;7.88;;
28988;SDS011;16089;59.952;10.818;2024-02-14T00:24:52;19.50;;;7.78;;
28988;SDS011;16089;59.952;10.818;2024-02-14T00:27:19;21.67;;;8.55;;
28988;SDS011;16089;59.952;10.818;2024-02-14T00:29:45;18.90;;;7.47;;
28988;SDS011;16089;59.952;10.818;2024-02-14T00:32:12;23.40;;;8.52;;
28988;SDS011;16089;59.952;10.818;2024-02-14T00:34:39;23.92;;;9.90;;
28988;SDS011;16089;59.952;10.818;2024-02-14T00:37:06;25.80;;;9.80;;
28988;SDS011;16089;59.952;10.818;2024-02-14T00:39:33;29.38;;;10.77;;
28988;SDS011;16089;59.952;10.818;2024-02-14T00:41:59;28.67;;;11.73;;
28988;SDS011;16089;59.952;10.818;2024-02-14T00:44:25;29.35;;;10.50;;
28988;SDS011;16089;59.952;10.818;2024-02-14T00:46:55;27.70;;;11.48;;
28988;SDS011;16089;59.952;10.818;2024-02-14T00:49:21;30.05;;;12.48;;
28988;SDS011;16089;59.952;10.818;2024-02-14T00:51:49;31.55;;;11.52;;
28988;SDS011;16089;59.952;10.818;2024-02-14T00:54:16;29.25;;;11.35;;
28988;SDS011;16089;59.952;10.818;2024-02-14T00:56:42;28.17;;;10.95;;
28988;SDS011;16089;59.952;10.818;2024-02-14T00:59:09;29.52;;;11.25;;
28988;SDS011;16089;59.952;10.818;2024-02-14T01:01:35;33.05;;;12.35;;
28988;SDS011;16089;59.952;10.818;2024-02-14T01:04:02;31.70;;;13.43;;
28988;SDS011;16089;59.952;10.818;2024-02-14T01:06:29;34.67;;;13.90;;
28988;SDS011;16089;59.952;10.818;2024-02-14T01:08:57;34.15;;;14.43;;
28988;SDS011;16089;59.952;10.818;2024-02-14T01:11:24;33.25;;;13.23;;
28988;SDS011;16089;59.952;10.818;2024-02-14T01:13:50;34.65;;;14.48;;
28988;SDS011;16089;59.952;10.818;2024-02-14T01:16:17;37.95;;;14.05;;
28988;SDS011;16089;59.952;10.818;2024-02-14T01:18:43;32.95;;;13.68;;
28988;SDS011;16089;59.952;10.818;2024-02-14T01:21:10;38.85;;;14.23;;
28988;SDS011;16089;59.952;10.818;2024-02-14T01:23:37;36.55;;;13.98;;
28988;SDS011;16089;59.952;10.818;2024-02-14T01:26:05;36.25;;;15.00;;
28988;SDS011;16089;59.952;10.818;2024-02-14T01:28:32;39.35;;;14.57;;
28988;SDS011;16089;59.952;10.818;2024-02-14T01:30:58;36.28;;;13.25;;
28988;SDS011;16089;59.952;10.818;2024-02-14T01:33:25;34.45;;;13.85;;
28988;SDS011;16089;59.952;10.818;2024-02-14T01:35:51;32.25;;;13.57;;
28988;SDS011;16089;59.952;10.818;2024-02-14T01:38:18;33.05;;;13.50;;
28988;SDS011;16089;59.952;10.818;2024-02-14T01:40:44;33.65;;;13.07;;
28988;SDS011;16089;59.952;10.818;2024-02-14T01:43:13;34.10;;;13.57;;
28988;SDS011;16089;59.952;10.818;2024-02-14T01:45:40;34.92;;;12.88;;
28988;SDS011;16089;59.952;10.818;2024-02-14T01:48:07;33.35;;;12.48;;
28988;SDS011;16089;59.952;10.818;2024-02-14T01:50:34;36.30;;;13.48;;
28988;SDS011;16089;59.952;10.818;2024-02-14T01:53:00;31.90;;;12.90;;
28988;SDS011;16089;59.952;10.818;2024-02-14T01:55:27;33.35;;;13.10;;
28988;SDS011;16089;59.952;10.818;2024-02-14T01:57:54;35.58;;;13.27;;
28988;SDS011;16089;59.952;10.818;2024-02-14T02:00:22;33.38;;;12.35;;
28988;SDS011;16089;59.952;10.818;2024-02-14T02:02:48;40.22;;;13.35;;
28988;SDS011;16089;59.952;10.818;2024-02-14T02:05:15;34.80;;;12.68;;
28988;SDS011;16089;59.952;10.818;2024-02-14T02:07:42;35.17;;;12.98;;
28988;SDS011;16089;59.952;10.818;2024-02-14T02:10:09;37.83;;;13.38;;
28988;SDS011;16089;59.952;10.818;2024-02-14T02:12:36;30.67;;;12.63;;
28988;SDS011;16089;59.952;10.818;2024-02-14T02:15:04;34.15;;;12.65;;
28988;SDS011;16089;59.952;10.818;2024-02-14T02:17:32;27.63;;;11.32;;
28988;SDS011;16089;59.952;10.818;2024-02-14T02:19:59;30.60;;;10.95;;
28988;SDS011;16089;59.952;10.818;2024-02-14T02:22:26;31.20;;;11.40;;
28988;SDS011;16089;59.952;10.818;2024-02-14T02:24:55;33.13;;;10.70;;
28988;SDS011;16089;59.952;10.818;2024-02-14T02:27:21;35.15;;;11.82;;
28988;SDS011;16089;59.952;10.818;2024-02-14T02:29:48;32.33;;;11.88;;
28988;SDS011;16089;59.952;10.818;2024-02-14T02:32:14;28.75;;;11.70;;
28988;SDS011;16089;59.952;10.818;2024-02-14T02:34:41;32.83;;;11.40;;
28988;SDS011;16089;59.952;10.818;2024-02-14T02:37:09;33.47;;;12.77;;
28988;SDS011;16089;59.952;10.818;2024-02-14T02:39:36;32.50;;;11.27;;
28988;SDS011;16089;59.952;10.818;2024-02-14T02:42:04;30.80;;;11.45;;
28988;SDS011;16089;59.952;10.818;2024-02-14T02:44:31;31.83;;;11.13;;
28988;SDS011;16089;59.952;10.818;2024-02-14T02:46:57;36.95;;;11.82;;
28988;SDS011;16089;59.952;10.818;2024-02-14T02:49:25;31.15;;;11.57;;
28988;SDS011;16089;59.952;10.818;2024-02-14T02:51:52;31.73;;;10.88;;
28988;SDS011;16089;59.952;10.818;2024-02-14T02:54:18;34.90;;;11.25;;
28988;SDS011;16089;59.952;10.818;2024-02-14T02:56:45;27.08;;;10.68;;
28988;SDS011;16089;59.952;10.818;2024-02-14T02:59:13;28.90;;;11.68;;
28988;SDS011;16089;59.952;10.818;2024-02-14T03:01:42;36.35;;;13.27;;
28988;SDS011;16089;59.952;10.818;2024-02-14T03:04:09;32.28;;;11.57;;
28988;SDS011;16089;59.952;10.818;2024-02-14T03:06:38;33.20;;;11.77;;
28988;SDS011;16089;59.952;10.818;2024-02-14T03:09:05;31.92;;;12.15;;
28988;SDS011;16089;59.952;10.818;2024-02-14T03:11:32;35.00;;;12.02;;
28988;SDS011;16089;59.952;10.818;2024-02-14T03:14:00;34.20;;;10.73;;
28988;SDS011;16089;59.952;10.818;2024-02-14T03:16:28;31.98;;;11.10;;
28988;SDS011;16089;59.952;10.818;2024-02-14T03:18:55;33.33;;;11.80;;
28988;SDS011;16089;59.952;10.818;2024-02-14T03:21:21;33.80;;;12.35;;
28988;SDS011;16089;59.952;10.818;2024-02-14T03:23:48;31.35;;;11.38;;
28988;SDS011;16089;59.952;10.818;2024-02-14T03:26:14;30.08;;;10.48;;
28988;SDS011;16089;59.952;10.818;2024-02-14T03:28:41;33.90;;;11.40;;
28988;SDS011;16089;59.952;10.818;2024-02-14T03:31:08;29.48;;;10.80;;
28988;SDS011;16089;59.952;10.818;2024-02-14T03:33:42;32.78;;;11.25;;
28988;SDS011;16089;59.952;10.818;2024-02-14T03:36:08;35.90;;;10.82;;
28988;SDS011;16089;59.952;10.818;2024-02-14T03:38:35;37.33;;;11.88;;
28988;SDS011;16089;59.952;10.818;2024-02-14T03:41:04;36.20;;;11.52;;
28988;SDS011;16089;59.952;10.818;2024-02-14T03:43:30;31.05;;;11.27;;
28988;SDS011;16089;59.952;10.818;2024-02-14T03:45:57;36.45;;;12.68;;
28988;SDS011;16089;59.952;10.818;2024-02-14T03:48:23;35.22;;;12.15;;
28988;SDS011;16089;59.952;10.818;2024-02-14T03:50:51;35.65;;;12.27;;
28988;SDS011;16089;59.952;10.818;2024-02-14T03:53:18;33.65;;;11.68;;
28988;SDS011;16089;59.952;10.818;2024-02-14T03:55:44;37.90;;;13.57;;
28988;SDS011;16089;59.952;10.818;2024-02-14T03:58:11;28.83;;;11.40;;
28988;SDS011;16089;59.952;10.818;2024-02-14T04:00:39;35.20;;;13.05;;
28988;SDS011;16089;59.952;10.818;2024-02-14T04:03:05;37.90;;;12.32;;
28988;SDS011;16089;59.952;10.818;2024-02-14T04:05:32;34.22;;;13.60;;
28988;SDS011;16089;59.952;10.818;2024-02-14T04:08:00;38.92;;;13.70;;
28988;SDS011;16089;59.952;10.818;2024-02-14T04:10:26;34.97;;;12.00;;
28988;SDS011;16089;59.952;10.818;2024-02-14T04:12:53;34.92;;;12.18;;
28988;SDS011;16089;59.952;10.818;2024-02-14T04:15:19;31.17;;;12.25;;
28988;SDS011;16089;59.952;10.818;2024-02-14T04:17:45;37.08;;;13.20;;
28988;SDS011;16089;59.952;10.818;2024-02-14T04:20:12;35.90;;;13.43;;
28988;SDS011;16089;59.952;10.818;2024-02-14T04:22:38;33.90;;;11.93;;
28988;SDS011;16089;59.952;10.818;2024-02-14T04:25:08;37.85;;;12.90;;
28988;SDS011;16089;59.952;10.818;2024-02-14T04:27:34;35.20;;;12.10;;
28988;SDS011;16089;59.952;10.818;2024-02-14T04:30:01;39.58;;;12.70;;
28988;SDS011;16089;59.952;10.818;2024-02-14T04:32:27;35.53;;;12.45;;
28988;SDS011;16089;59.952;10.818;2024-02-14T04:34:54;36.83;;;12.98;;
28988;SDS011;16089;59.952;10.818;2024-02-14T04:37:21;35.05;;;12.68;;
28988;SDS011;16089;59.952;10.818;2024-02-14T04:39:48;33.97;;;12.35;;
28988;SDS011;16089;59.952;10.818;2024-02-14T04:42:15;35.60;;;13.45;;
28988;SDS011;16089;59.952;10.818;2024-02-14T04:44:42;43.50;;;13.82;;
28988;SDS011;16089;59.952;10.818;2024-02-14T04:47:09;35.70;;;13.10;;
28988;SDS011;16089;59.952;10.818;2024-02-14T04:49:35;36.67;;;13.30;;
28988;SDS011;16089;59.952;10.818;2024-02-14T04:52:03;36.80;;;12.35;;
28988;SDS011;16089;59.952;10.818;2024-02-14T04:54:29;43.00;;;14.52;;
28988;SDS011;16089;59.952;10.818;2024-02-14T04:56:55;40.08;;;12.73;;
28988;SDS011;16089;59.952;10.818;2024-02-14T04:59:23;38.50;;;12.45;;
28988;SDS011;16089;59.952;10.818;2024-02-14T05:01:50;35.10;;;12.75;;
28988;SDS011;16089;59.952;10.818;2024-02-14T05:04:18;40.50;;;12.00;;
28988;SDS011;16089;59.952;10.818;2024-02-14T05:06:45;34.08;;;12.10;;
28988;SDS011;16089;59.952;10.818;2024-02-14T05:09:12;33.38;;;12.07;;
28988;SDS011;16089;59.952;10.818;2024-02-14T05:11:40;44.22;;;13.60;;
28988;SDS011;16089;59.952;10.818;2024-02-14T05:14:06;39.83;;;12.80;;
28988;SDS011;16089;59.952;10.818;2024-02-14T05:16:35;35.47;;;12.05;;
28988;SDS011;16089;59.952;10.818;2024-02-14T05:19:01;32.45;;;11.23;;
28988;SDS011;16089;59.952;10.818;2024-02-14T05:21:27;34.15;;;11.32;;
28988;SDS011;16089;59.952;10.818;2024-02-14T05:23:55;33.40;;;10.82;;
28988;SDS011;16089;59.952;10.818;2024-02-14T05:26:21;39.00;;;12.60;;
28988;SDS011;16089;59.952;10.818;2024-02-14T05:28:47;30.38;;;11.07;;
28988;SDS011;16089;59.952;10.818;2024-02-14T05:31:14;30.42;;;11.00;;
28988;SDS011;16089;59.952;10.818;2024-02-14T05:33:42;30.23;;;11.82;;
28988;SDS011;16089;59.952;10.818;2024-02-14T05:36:09;30.05;;;10.23;;
28988;SDS011;16089;59.952;10.818;2024-02-14T05:38:36;28.45;;;10.77;;
28988;SDS011;16089;59.952;10.818;2024-02-14T05:41:02;30.48;;;10.38;;
28988;SDS011;16089;59.952;10.818;2024-02-14T05:43:29;28.95;;;10.10;;
28988;SDS011;16089;59.952;10.818;2024-02-14T05:45:55;28.83;;;10.82;;
28988;SDS011;16089;59.952;10.818;2024-02-14T05:48:22;32.20;;;11.68;;
28988;SDS011;16089;59.952;10.818;2024-02-14T05:50:50;30.65;;;10.45;;
28988;SDS011;16089;59.952;10.818;2024-02-14T05:53:16;28.55;;;10.57;;
28988;SDS011;16089;59.952;10.818;2024-02-14T05:55:43;28.45;;;12.10;;
28988;SDS011;16089;59.952;10.818;2024-02-14T05:58:09;26.83;;;10.48;;
28988;SDS011;16089;59.952;10.818;2024-02-14T06:00:38;32.95;;;11.45;;
28988;SDS011;16089;59.952;10.818;2024-02-14T06:03:04;30.35;;;10.93;;
28988;SDS011;16089;59.952;10.818;2024-02-14T06:05:31;29.80;;;11.68;;
28988;SDS011;16089;59.952;10.818;2024-02-14T06:07:59;36.35;;;13.13;;
28988;SDS011;16089;59.952;10.818;2024-02-14T06:10:28;30.13;;;11.98;;
28988;SDS011;16089;59.952;10.818;2024-02-14T06:12:54;35.22;;;12.55;;
28988;SDS011;16089;59.952;10.818;2024-02-14T06:15:21;37.42;;;12.93;;
28988;SDS011;16089;59.952;10.818;2024-02-14T06:17:48;34.50;;;11.73;;
28988;SDS011;16089;59.952;10.818;2024-02-14T06:20:14;35.42;;;12.05;;
28988;SDS011;16089;59.952;10.818;2024-02-14T06:22:41;35.40;;;12.15;;
28988;SDS011;16089;59.952;10.818;2024-02-14T06:25:09;37.00;;;12.88;;
28988;SDS011;16089;59.952;10.818;2024-02-14T06:27:35;34.78;;;12.02;;
28988;SDS011;16089;59.952;10.818;2024-02-14T06:30:02;29.17;;;11.57;;
28988;SDS011;16089;59.952;10.818;2024-02-14T06:32:29;34.97;;;13.10;;
28988;SDS011;16089;59.952;10.818;2024-02-14T06:34:55;38.55;;;13.20;;
28988;SDS011;16089;59.952;10.818;2024-02-14T06:37:22;32.85;;;12.52;;
28988;SDS011;16089;59.952;10.818;2024-02-14T06:39:48;34.58;;;13.50;;
28988;SDS011;16089;59.952;10.818;2024-02-14T06:42:16;35.72;;;12.57;;
28988;SDS011;16089;59.952;10.818;2024-02-14T06:44:43;37.42;;;12.52;;
28988;SDS011;16089;59.952;10.818;2024-02-14T06:47:09;40.25;;;13.15;;
28988;SDS011;16089;59.952;10.818;2024-02-14T06:49:36;32.50;;;12.85;;
28988;SDS011;16089;59.952;10.818;2024-02-14T06:52:03;35.22;;;12.93;;
28988;SDS011;16089;59.952;10.818;2024-02-14T06:54:29;35.67;;;13.52;;
28988;SDS011;16089;59.952;10.818;2024-02-14T06:56:56;37.65;;;13.35;;
28988;SDS011;16089;59.952;10.818;2024-02-14T06:59:24;35.28;;;13.43;;
28988;SDS011;16089;59.952;10.818;2024-02-14T07:01:51;39.10;;;13.25;;
28988;SDS011;16089;59.952;10.818;2024-02-14T07:04:19;34.50;;;13.23;;
28988;SDS011;16089;59.952;10.818;2024-02-14T07:06:50;44.95;;;13.93;;
28988;SDS011;16089;59.952;10.818;2024-02-14T07:09:17;40.53;;;14.77;;
28988;SDS011;16089;59.952;10.818;2024-02-14T07:11:43;38.10;;;13.63;;
28988;SDS011;16089;59.952;10.818;2024-02-14T07:14:10;41.92;;;15.25;;
28988;SDS011;16089;59.952;10.818;2024-02-14T07:16:38;39.60;;;14.55;;
28988;SDS011;16089;59.952;10.818;2024-02-14T07:19:05;51.72;;;16.42;;
28988;SDS011;16089;59.952;10.818;2024-02-14T07:21:31;51.13;;;16.17;;
28988;SDS011;16089;59.952;10.818;2024-02-14T07:23:58;45.83;;;16.13;;
28988;SDS011;16089;59.952;10.818;2024-02-14T07:26:25;48.67;;;15.23;;
28988;SDS011;16089;59.952;10.818;2024-02-14T07:28:51;51.33;;;14.90;;
28988;SDS011;16089;59.952;10.818;2024-02-14T07:31:18;46.58;;;15.60;;
28988;SDS011;16089;59.952;10.818;2024-02-14T07:33:45;52.35;;;15.75;;
28988;SDS011;16089;59.952;10.818;2024-02-14T07:36:13;51.55;;;17.27;;
28988;SDS011;16089;59.952;10.818;2024-02-14T07:38:39;44.70;;;16.02;;
28988;SDS011;16089;59.952;10.818;2024-02-14T07:41:07;49.80;;;16.67;;
28988;SDS011;16089;59.952;10.818;2024-02-14T07:43:34;50.17;;;16.25;;
28988;SDS011;16089;59.952;10.818;2024-02-14T07:46:00;46.63;;;14.75;;
28988;SDS011;16089;59.952;10.818;2024-02-14T07:48:27;54.35;;;15.32;;
28988;SDS011;16089;59.952;10.818;2024-02-14T07:50:55;52.25;;;15.15;;
28988;SDS011;16089;59.952;10.818;2024-02-14T07:53:21;59.15;;;16.40;;
28988;SDS011;16089;59.952;10.818;2024-02-14T07:55:48;54.85;;;16.52;;
28988;SDS011;16089;59.952;10.818;2024-02-14T07:58:15;49.17;;;14.82;;
28988;SDS011;16089;59.952;10.818;2024-02-14T08:00:41;47.60;;;15.07;;
28988;SDS011;16089;59.952;10.818;2024-02-14T08:03:08;43.78;;;15.23;;
28988;SDS011;16089;59.952;10.818;2024-02-14T08:05:34;45.63;;;15.13;;
28988;SDS011;16089;59.952;10.818;2024-02-14T08:08:02;45.58;;;15.18;;
28988;SDS011;16089;59.952;10.818;2024-02-14T08:10:29;47.72;;;14.27;;
28988;SDS011;16089;59.952;10.818;2024-02-14T08:12:56;42.53;;;15.32;;
28988;SDS011;16089;59.952;10.818;2024-02-14T08:15:23;44.75;;;15.13;;
28988;SDS011;16089;59.952;10.818;2024-02-14T08:17:50;43.88;;;15.05;;
28988;SDS011;16089;59.952;10.818;2024-02-14T08:20:20;42.55;;;14.18;;
28988;SDS011;16089;59.952;10.818;2024-02-14T08:22:47;45.05;;;15.48;;
28988;SDS011;16089;59.952;10.818;2024-02-14T08:25:14;46.10;;;15.60;;
28988;SDS011;16089;59.952;10.818;2024-02-14T08:27:41;42.50;;;14.93;;
28988;SDS011;16089;59.952;10.818;2024-02-14T08:30:08;45.45;;;15.00;;
28988;SDS011;16089;59.952;10.818;2024-02-14T08:32:34;45.58;;;15.95;;
28988;SDS011;16089;59.952;10.818;2024-02-14T08:35:01;36.38;;;13.52;;
28988;SDS011;16089;59.952;10.818;2024-02-14T08:37:27;41.40;;;14.63;;
28988;SDS011;16089;59.952;10.818;2024-02-14T08:39:54;47.50;;;16.25;;
28988;SDS011;16089;59.952;10.818;2024-02-14T08:42:21;45.42;;;15.02;;
28988;SDS011;16089;59.952;10.818;2024-02-14T08:44:48;42.08;;;14.80;;
28988;SDS011;16089;59.952;10.818;2024-02-14T08:47:14;44.00;;;15.60;;
28988;SDS011;16089;59.952;10.818;2024-02-14T08:49:42;42.80;;;14.70;;
28988;SDS011;16089;59.952;10.818;2024-02-14T08:52:08;50.92;;;14.73;;
28988;SDS011;16089;59.952;10.818;2024-02-14T08:54:35;47.97;;;14.98;;
28988;SDS011;16089;59.952;10.818;2024-02-14T08:57:02;50.28;;;14.50;;
28988;SDS011;16089;59.952;10.818;2024-02-14T08:59:30;46.20;;;14.98;;
28988;SDS011;16089;59.952;10.818;2024-02-14T09:01:56;39.28;;;13.45;;
28988;SDS011;16089;59.952;10.818;2024-02-14T09:04:23;36.20;;;12.77;;
28988;SDS011;16089;59.952;10.818;2024-02-14T09:06:49;37.90;;;13.07;;
28988;SDS011;16089;59.952;10.818;2024-02-14T09:09:15;45.05;;;13.98;;
28988;SDS011;16089;59.952;10.818;2024-02-14T09:11:44;48.17;;;15.38;;
28988;SDS011;16089;59.952;10.818;2024-02-14T09:14:11;42.63;;;14.15;;
28988;SDS011;16089;59.952;10.818;2024-02-14T09:16:39;43.03;;;15.20;;
28988;SDS011;16089;59.952;10.818;2024-02-14T09:19:05;46.08;;;15.20;;
28988;SDS011;16089;59.952;10.818;2024-02-14T09:21:33;37.30;;;12.63;;
28988;SDS011;16089;59.952;10.818;2024-02-14T09:24:01;51.70;;;15.18;;
28988;SDS011;16089;59.952;10.818;2024-02-14T09:26:28;41.35;;;14.82;;
28988;SDS011;16089;59.952;10.818;2024-02-14T09:28:54;46.67;;;14.73;;
28988;SDS011;16089;59.952;10.818;2024-02-14T09:31:21;41.63;;;14.73;;
28988;SDS011;16089;59.952;10.818;2024-02-14T09:33:48;43.42;;;14.10;;
28988;SDS011;16089;59.952;10.818;2024-02-14T09:36:15;49.70;;;14.90;;
28988;SDS011;16089;59.952;10.818;2024-02-14T09:38:41;54.00;;;15.15;;
28988;SDS011;16089;59.952;10.818;2024-02-14T09:41:11;47.47;;;13.07;;
28988;SDS011;16089;59.952;10.818;2024-02-14T09:43:38;56.15;;;14.77;;
28988;SDS011;16089;59.952;10.818;2024-02-14T09:46:08;49.85;;;14.68;;
28988;SDS011;16089;59.952;10.818;2024-02-14T09:48:35;53.72;;;14.35;;
28988;SDS011;16089;59.952;10.818;2024-02-14T09:51:06;47.67;;;14.02;;
28988;SDS011;16089;59.952;10.818;2024-02-14T09:53:33;53.88;;;14.73;;
28988;SDS011;16089;59.952;10.818;2024-02-14T09:56:00;49.75;;;13.20;;
28988;SDS011;16089;59.952;10.818;2024-02-14T09:58:28;48.45;;;14.63;;
28988;SDS011;16089;59.952;10.818;2024-02-14T10:00:54;44.30;;;13.48;;
28988;SDS011;16089;59.952;10.818;2024-02-14T10:03:21;50.95;;;14.68;;
28988;SDS011;16089;59.952;10.818;2024-02-14T10:05:47;46.55;;;14.15;;
28988;SDS011;16089;59.952;10.818;2024-02-14T10:08:15;55.60;;;13.65;;
28988;SDS011;16089;59.952;10.818;2024-02-14T10:10:42;41.53;;;13.05;;
28988;SDS011;16089;59.952;10.818;2024-02-14T10:13:09;40.60;;;12.80;;
28988;SDS011;16089;59.952;10.818;2024-02-14T10:15:35;42.97;;;14.05;;
28988;SDS011;16089;59.952;10.818;2024-02-14T10:18:02;28.75;;;10.18;;
28988;SDS011;16089;59.952;10.818;2024-02-14T10:20:29;30.70;;;10.88;;
28988;SDS011;16089;59.952;10.818;2024-02-14T10:23:02;36.63;;;13.35;;
28988;SDS011;16089;59.952;10.818;2024-02-14T10:25:30;40.78;;;12.40;;
28988;SDS011;16089;59.952;10.818;2024-02-14T10:27:57;36.63;;;12.10;;
28988;SDS011;16089;59.952;10.818;2024-02-14T10:30:29;36.85;;;12.43;;
28988;SDS011;16089;59.952;10.818;2024-02-14T10:32:57;33.47;;;12.30;;
28988;SDS011;16089;59.952;10.818;2024-02-14T10:35:24;32.60;;;11.63;;
28988;SDS011;16089;59.952;10.818;2024-02-14T10:37:50;37.53;;;12.52;;
28988;SDS011;16089;59.952;10.818;2024-02-14T10:40:18;30.10;;;10.68;;
28988;SDS011;16089;59.952;10.818;2024-02-14T10:42:47;38.88;;;12.32;;
28988;SDS011;16089;59.952;10.818;2024-02-14T10:45:15;33.58;;;12.32;;
28988;SDS011;16089;59.952;10.818;2024-02-14T10:47:42;36.95;;;13.05;;
28988;SDS011;16089;59.952;10.818;2024-02-14T10:50:10;31.58;;;11.90;;
28988;SDS011;16089;59.952;10.818;2024-02-14T10:52:39;32.72;;;12.05;;
28988;SDS011;16089;59.952;10.818;2024-02-14T10:55:06;35.65;;;12.23;;
28988;SDS011;16089;59.952;10.818;2024-02-14T10:57:34;40.35;;;13.48;;
28988;SDS011;16089;59.952;10.818;2024-02-14T11:00:02;35.55;;;12.82;;
28988;SDS011;16089;59.952;10.818;2024-02-14T11:02:30;36.17;;;12.75;;
28988;SDS011;16089;59.952;10.818;2024-02-14T11:04:57;34.55;;;12.40;;
28988;SDS011;16089;59.952;10.818;2024-02-14T11:07:27;36.65;;;12.60;;
28988;SDS011;16089;59.952;10.818;2024-02-14T11:10:00;40.35;;;12.00;;
28988;SDS011;16089;59.952;10.818;2024-02-14T11:12:27;37.67;;;12.98;;
28988;SDS011;16089;59.952;10.818;2024-02-14T11:14:56;38.13;;;13.18;;
28988;SDS011;16089;59.952;10.818;2024-02-14T11:17:24;36.13;;;12.20;;
28988;SDS011;16089;59.952;10.818;2024-02-14T11:19:52;34.97;;;13.15;;
28988;SDS011;16089;59.952;10.818;2024-02-14T11:22:19;32.85;;;11.65;;
28988;SDS011;16089;59.952;10.818;2024-02-14T11:24:46;35.92;;;12.75;;
28988;SDS011;16089;59.952;10.818;2024-02-14T11:27:13;33.25;;;12.95;;
28988;SDS011;16089;59.952;10.818;2024-02-14T11:29:40;41.13;;;13.38;;
28988;SDS011;16089;59.952;10.818;2024-02-14T11:32:07;32.33;;;11.85;;
28988;SDS011;16089;59.952;10.818;2024-02-14T11:34:36;34.35;;;13.30;;
28988;SDS011;16089;59.952;10.818;2024-02-14T11:37:03;35.55;;;12.82;;
28988;SDS011;16089;59.952;10.818;2024-02-14T11:39:30;38.08;;;13.55;;
28988;SDS011;16089;59.952;10.818;2024-02-14T11:41:58;36.05;;;12.32;;
28988;SDS011;16089;59.952;10.818;2024-02-14T11:44:26;43.33;;;14.15;;
28988;SDS011;16089;59.952;10.818;2024-02-14T11:46:52;39.83;;;12.40;;
28988;SDS011;16089;59.952;10.818;2024-02-14T11:49:20;38.13;;;14.23;;
28988;SDS011;16089;59.952;10.818;2024-02-14T11:51:48;38.85;;;12.10;;
28988;SDS011;16089;59.952;10.818;2024-02-14T11:54:14;41.70;;;14.43;;
28988;SDS011;16089;59.952;10.818;2024-02-14T11:56:42;43.63;;;13.65;;
28988;SDS011;16089;59.952;10.818;2024-02-14T11:59:08;37.67;;;13.55;;
28988;SDS011;16089;59.952;10.818;2024-02-14T12:01:36;39.50;;;13.27;;
28988;SDS011;16089;59.952;10.818;2024-02-14T12:04:02;36.05;;;12.35;;
28988;SDS011;16089;59.952;10.818;2024-02-14T12:06:30;44.28;;;13.77;;
28988;SDS011;16089;59.952;10.818;2024-02-14T12:08:58;37.13;;;12.45;;
28988;SDS011;16089;59.952;10.818;2024-02-14T12:11:26;41.42;;;13.50;;
28988;SDS011;16089;59.952;10.818;2024-02-14T12:13:54;40.90;;;13.52;;
28988;SDS011;16089;59.952;10.818;2024-02-14T12:16:23;42.95;;;14.60;;
28988;SDS011;16089;59.952;10.818;2024-02-14T12:18:50;37.95;;;14.05;;
28988;SDS011;16089;59.952;10.818;2024-02-14T12:21:26;37.67;;;13.45;;
28988;SDS011;16089;59.952;10.818;2024-02-14T12:23:59;36.80;;;12.75;;
28988;SDS011;16089;59.952;10.818;2024-02-14T12:26:25;38.70;;;13.55;;
28988;SDS011;16089;59.952;10.818;2024-02-14T12:28:53;37.08;;;12.82;;
28988;SDS011;16089;59.952;10.818;2024-02-14T12:31:22;40.28;;;13.65;;
28988;SDS011;16089;59.952;10.818;2024-02-14T12:33:49;30.05;;;11.35;;
28988;SDS011;16089;59.952;10.818;2024-02-14T12:36:17;31.30;;;11.38;;
28988;SDS011;16089;59.952;10.818;2024-02-14T12:38:44;28.45;;;11.35;;
28988;SDS011;16089;59.952;10.818;2024-02-14T12:41:12;30.60;;;11.27;;
28988;SDS011;16089;59.952;10.818;2024-02-14T12:43:39;27.23;;;11.15;;
28988;SDS011;16089;59.952;10.818;2024-02-14T12:46:05;31.45;;;11.18;;
28988;SDS011;16089;59.952;10.818;2024-02-14T12:48:32;28.88;;;11.00;;
28988;SDS011;16089;59.952;10.818;2024-02-14T12:50:59;34.05;;;11.40;;
28988;SDS011;16089;59.952;10.818;2024-02-14T12:53:25;21.20;;;9.05;;
28988;SDS011;16089;59.952;10.818;2024-02-14T12:55:51;27.75;;;11.35;;
28988;SDS011;16089;59.952;10.818;2024-02-14T12:58:19;26.35;;;10.35;;
28988;SDS011;16089;59.952;10.818;2024-02-14T13:00:46;27.88;;;10.93;;
28988;SDS011;16089;59.952;10.818;2024-02-14T13:03:12;28.02;;;10.55;;
28988;SDS011;16089;59.952;10.818;2024-02-14T13:05:39;29.38;;;11.35;;
28988;SDS011;16089;59.952;10.818;2024-02-14T13:08:06;28.08;;;11.10;;
28988;SDS011;16089;59.952;10.818;2024-02-14T13:10:34;30.95;;;12.05;;
28988;SDS011;16089;59.952;10.818;2024-02-14T13:13:00;28.38;;;11.68;;
28988;SDS011;16089;59.952;10.818;2024-02-14T13:15:28;29.75;;;11.82;;
28988;SDS011;16089;59.952;10.818;2024-02-14T13:17:58;33.92;;;12.32;;
28988;SDS011;16089;59.952;10.818;2024-02-14T13:20:25;32.42;;;12.52;;
28988;SDS011;16089;59.952;10.818;2024-02-14T13:22:51;28.45;;;11.63;;
28988;SDS011;16089;59.952;10.818;2024-02-14T13:25:18;28.33;;;10.45;;
28988;SDS011;16089;59.952;10.818;2024-02-14T13:27:44;31.60;;;10.40;;
28988;SDS011;16089;59.952;10.818;2024-02-14T13:30:11;25.88;;;10.77;;
28988;SDS011;16089;59.952;10.818;2024-02-14T13:32:39;25.27;;;9.95;;
28988;SDS011;16089;59.952;10.818;2024-02-14T13:35:05;30.90;;;10.98;;
28988;SDS011;16089;59.952;10.818;2024-02-14T13:37:32;28.88;;;11.27;;
28988;SDS011;16089;59.952;10.818;2024-02-14T13:39:59;26.45;;;10.32;;
28988;SDS011;16089;59.952;10.818;2024-02-14T13:45:00;27.73;;;10.38;;
28988;SDS011;16089;59.952;10.818;2024-02-14T13:47:26;29.65;;;11.07;;
28988;SDS011;16089;59.952;10.818;2024-02-14T13:49:54;25.60;;;10.98;;
28988;SDS011;16089;59.952;10.818;2024-02-14T13:52:21;33.17;;;11.77;;
28988;SDS011;16089;59.952;10.818;2024-02-14T13:54:47;26.27;;;10.65;;
28988;SDS011;16089;59.952;10.818;2024-02-14T13:57:14;26.85;;;10.95;;
28988;SDS011;16089;59.952;10.818;2024-02-14T13:59:40;27.48;;;10.55;;
28988;SDS011;16089;59.952;10.818;2024-02-14T14:02:07;22.20;;;9.85;;
28988;SDS011;16089;59.952;10.818;2024-02-14T14:04:34;27.27;;;10.20;;
28988;SDS011;16089;59.952;10.818;2024-02-14T14:07:03;28.20;;;10.45;;
28988;SDS011;16089;59.952;10.818;2024-02-14T14:09:29;25.02;;;8.65;;